Time;durP1;ratioP1;P1;durP2;ratioP2;P2;SDS_P1;SDS_P2;PMS_P1;PMS_P2;Temp;Humidity;BMP_temperature;BMP_pressure;BME280_temperature;BME280_humidity;BME280_pressure;Samples;Min_cycle;Max_cycle;Signal;HPM_P1;HPM_P2
2022/04/14 00:00:23;;;;;;;4.32;3.92;;;20.80;51.10;;;;;;5035866;28;20186;-70
2022/04/14 00:02:54;;;;;;;4.43;4.03;;;20.80;51.10;;;;;;5018932;28;20186;-70
2022/04/14 00:05:20;;;;;;;4.15;3.83;;;20.80;51.10;;;;;;5035608;28;20289;-70
2022/04/14 00:07:47;;;;;;;4.00;3.60;;;20.80;51.10;;;;;;5035889;28;20277;-70
2022/04/14 00:10:14;;;;;;;4.38;3.97;;;20.80;51.10;;;;;;5019625;28;20236;-70
2022/04/14 00:12:41;;;;;;;3.40;3.10;;;20.80;51.10;;;;;;5035887;28;20194;-70
2022/04/14 00:15:09;;;;;;;3.55;3.25;;;20.80;51.00;;;;;;5054065;28;20194;-70
2022/04/14 00:17:35;;;;;;;3.60;3.30;;;20.80;51.10;;;;;;5035790;28;20206;-71
2022/04/14 00:20:08;;;;;;;3.50;3.15;;;20.80;51.10;;;;;;5036397;28;20183;-70
2022/04/14 00:22:35;;;;;;;3.70;3.40;;;20.70;51.00;;;;;;5036130;28;20197;-70
2022/04/14 00:25:02;;;;;;;3.35;3.05;;;20.70;51.00;;;;;;5053054;28;20273;-70
2022/04/14 00:27:28;;;;;;;3.47;3.17;;;20.80;51.00;;;;;;5053092;28;20210;-70
2022/04/14 00:29:54;;;;;;;3.13;2.92;;;20.80;51.10;;;;;;5036085;28;20178;-70
2022/04/14 00:32:20;;;;;;;3.38;2.95;;;20.70;51.00;;;;;;5035735;28;20191;-70
2022/04/14 00:34:45;;;;;;;3.70;3.40;;;20.70;51.00;;;;;;5035874;28;20178;-70
2022/04/14 00:37:11;;;;;;;4.10;3.45;;;20.70;51.00;;;;;;5035931;28;20237;-69
2022/04/14 00:39:38;;;;;;;3.50;3.20;;;20.70;51.00;;;;;;5036763;28;20190;-70
2022/04/14 00:42:11;;;;;;;4.22;3.40;;;20.70;51.00;;;;;;5069436;28;20194;-69
2022/04/14 00:44:37;;;;;;;3.47;3.17;;;20.70;51.00;;;;;;5020477;28;20182;-70
2022/04/14 00:47:05;;;;;;;3.95;3.65;;;20.70;51.00;;;;;;5036012;28;20259;-70
2022/04/14 00:49:31;;;;;;;4.50;3.90;;;20.70;50.90;;;;;;5053105;28;20258;-70
2022/04/14 00:52:00;;;;;;;3.58;3.30;;;20.70;51.00;;;;;;5019357;28;20228;-70
2022/04/14 00:54:28;;;;;;;3.80;3.50;;;20.70;51.00;;;;;;5052281;28;20186;-70
2022/04/14 00:56:56;;;;;;;3.58;3.28;;;20.70;50.90;;;;;;5035568;28;20206;-70
2022/04/14 00:59:22;;;;;;;3.45;3.15;;;20.70;50.90;;;;;;5053448;28;20221;-70
2022/04/14 01:01:47;;;;;;;3.28;2.97;;;20.70;50.90;;;;;;5036514;28;20198;-70
2022/04/14 01:04:15;;;;;;;3.70;3.35;;;20.70;50.90;;;;;;5036458;28;20186;-70
2022/04/14 01:06:41;;;;;;;3.53;3.22;;;20.70;51.00;;;;;;5020226;28;20214;-70
2022/04/14 01:09:19;;;;;;;3.35;2.85;;;20.70;51.00;;;;;;5036493;28;20194;-70
2022/04/14 01:11:51;;;;;;;3.50;3.20;;;20.70;51.00;;;;;;5020107;28;20186;-70
2022/04/14 01:14:29;;;;;;;3.42;3.10;;;20.70;51.00;;;;;;5022493;28;20646;-70
2022/04/14 01:16:59;;;;;;;3.83;3.53;;;20.70;51.00;;;;;;5023177;28;20590;-70
2022/04/14 01:19:26;;;;;;;3.17;2.88;;;20.70;51.00;;;;;;5039448;28;20183;-70
2022/04/14 01:22:15;;;;;;;4.20;3.35;;;20.70;51.00;;;;;;5039740;28;20192;-70
2022/04/14 01:24:42;;;;;;;3.83;3.35;;;20.70;51.00;;;;;;5058069;28;20175;-70
2022/04/14 01:27:08;;;;;;;3.85;3.55;;;20.60;50.80;;;;;;5056201;28;20233;-70
2022/04/14 01:29:35;;;;;;;3.30;3.00;;;20.70;50.90;;;;;;5057444;28;20170;-70
2022/04/14 01:32:02;;;;;;;3.42;3.13;;;20.60;50.90;;;;;;5039673;28;20273;-70
2022/04/14 01:34:31;;;;;;;3.10;2.83;;;20.60;50.80;;;;;;5056688;28;20235;-70
2022/04/14 01:37:01;;;;;;;2.88;2.67;;;20.60;50.80;;;;;;5040018;28;20211;-70
2022/04/14 01:39:30;;;;;;;3.63;3.33;;;20.60;50.80;;;;;;5056980;28;20240;-70
2022/04/14 01:41:56;;;;;;;3.33;3.03;;;20.60;50.90;;;;;;5039903;28;20178;-70
2022/04/14 01:44:22;;;;;;;2.88;2.67;;;20.60;50.90;;;;;;5040602;28;20171;-70
2022/04/14 01:46:48;;;;;;;2.78;2.58;;;20.60;50.80;;;;;;5039212;28;20218;-70
2022/04/14 01:49:13;;;;;;;3.20;2.90;;;20.60;50.90;;;;;;5038849;28;20571;-70
2022/04/14 01:51:40;;;;;;;3.35;3.05;;;20.60;50.80;;;;;;5039678;28;20183;-70
2022/04/14 01:54:06;;;;;;;2.95;2.75;;;20.60;50.80;;;;;;5039033;28;20184;-70
2022/04/14 01:56:33;;;;;;;2.92;2.72;;;20.60;51.40;;;;;;5039002;28;20207;-70
2022/04/14 01:58:59;;;;;;;2.83;2.63;;;20.60;50.80;;;;;;5057398;28;20175;-70
2022/04/14 02:01:25;;;;;;;2.97;2.78;;;20.60;50.80;;;;;;5039981;28;20220;-69
2022/04/14 02:03:52;;;;;;;3.60;3.30;;;20.60;50.90;;;;;;5040441;28;20194;-69
2022/04/14 02:06:18;;;;;;;3.25;2.95;;;20.60;50.80;;;;;;5040121;28;20214;-69
2022/04/14 02:08:44;;;;;;;3.63;3.25;;;20.60;50.80;;;;;;5040284;28;20186;-70
2022/04/14 02:11:10;;;;;;;3.20;2.90;;;20.60;50.80;;;;;;5040039;28;20187;-69
2022/04/14 02:13:37;;;;;;;3.45;3.15;;;20.60;50.80;;;;;;5040009;28;20187;-70
2022/04/14 02:16:03;;;;;;;3.30;3.00;;;20.60;50.80;;;;;;5056698;28;20225;-70
2022/04/14 02:18:29;;;;;;;3.30;3.00;;;20.60;50.80;;;;;;5039993;28;20187;-70
2022/04/14 02:20:55;;;;;;;3.50;3.20;;;20.60;50.80;;;;;;5035693;28;20246;-69
2022/04/14 02:23:22;;;;;;;3.15;2.85;;;20.60;50.80;;;;;;5036206;28;20198;-70
2022/04/14 02:25:48;;;;;;;3.40;3.10;;;20.60;50.80;;;;;;5018831;28;20218;-70
2022/04/14 02:28:14;;;;;;;3.20;2.90;;;20.60;50.80;;;;;;5019307;28;20218;-70
2022/04/14 02:30:40;;;;;;;2.92;2.70;;;20.60;50.80;;;;;;5020080;28;20179;-70
2022/04/14 02:33:06;;;;;;;3.25;2.95;;;20.60;50.80;;;;;;5019743;28;20179;-69
2022/04/14 02:35:32;;;;;;;2.80;2.60;;;20.60;50.80;;;;;;5053769;28;20225;-70
2022/04/14 02:37:58;;;;;;;3.20;2.90;;;20.50;50.70;;;;;;5057067;28;20190;-70
2022/04/14 02:40:25;;;;;;;3.53;3.20;;;20.60;50.80;;;;;;5032575;28;20215;-70
2022/04/14 02:42:56;;;;;;;2.85;2.65;;;20.60;50.80;;;;;;5020517;28;20187;-69
2022/04/14 02:45:23;;;;;;;3.30;3.00;;;20.50;50.70;;;;;;5038863;28;20254;-70
2022/04/14 02:47:50;;;;;;;3.00;2.80;;;20.60;50.80;;;;;;5038110;28;20297;-70
2022/04/14 02:50:16;;;;;;;3.30;3.00;;;20.60;50.80;;;;;;5039156;28;20179;-71
2022/04/14 02:52:42;;;;;;;3.60;3.30;;;20.60;50.80;;;;;;5039258;28;20190;-69
2022/04/14 02:55:09;;;;;;;3.33;3.03;;;20.60;50.80;;;;;;5039511;28;20187;-70
2022/04/14 02:57:35;;;;;;;3.22;2.95;;;20.60;50.80;;;;;;5039050;28;20206;-69
2022/04/14 03:00:05;;;;;;;3.35;3.05;;;20.50;50.70;;;;;;5040032;28;20189;-69
2022/04/14 03:02:30;;;;;;;3.53;3.22;;;20.50;50.70;;;;;;5055691;28;20652;-70
2022/04/14 03:04:56;;;;;;;3.25;2.92;;;20.50;50.70;;;;;;5039237;28;20179;-70
2022/04/14 03:07:23;;;;;;;3.90;3.50;;;20.50;50.70;;;;;;5039076;28;20321;-70
2022/04/14 03:09:48;;;;;;;3.97;3.40;;;20.50;50.70;;;;;;5039648;28;20182;-70
2022/04/14 03:12:14;;;;;;;3.58;3.28;;;20.50;50.70;;;;;;5039086;28;20182;-69
2022/04/14 03:14:40;;;;;;;3.33;3.03;;;20.50;50.60;;;;;;5039706;28;20178;-69
2022/04/14 03:17:05;;;;;;;3.13;2.83;;;20.50;50.60;;;;;;5030410;28;20234;-70
2022/04/14 03:19:31;;;;;;;3.00;2.80;;;20.50;50.70;;;;;;5035766;28;20191;-70
2022/04/14 03:21:58;;;;;;;2.95;2.75;;;20.50;50.70;;;;;;5003572;28;20194;-70
2022/04/14 03:24:24;;;;;;;3.10;2.60;;;20.50;50.70;;;;;;5020127;28;20214;-70
2022/04/14 03:26:50;;;;;;;3.25;3.03;;;20.50;50.70;;;;;;5037190;28;20230;-70
2022/04/14 03:29:16;;;;;;;2.83;2.60;;;20.50;50.70;;;;;;5019253;28;20270;-70
2022/04/14 03:31:42;;;;;;;3.10;2.85;;;20.50;50.70;;;;;;5020187;28;20212;-70
2022/04/14 03:34:08;;;;;;;3.22;2.92;;;20.50;50.70;;;;;;5036652;28;20687;-70
2022/04/14 03:36:34;;;;;;;3.50;2.97;;;20.50;50.70;;;;;;5033934;28;20203;-70
2022/04/14 03:38:59;;;;;;;3.08;2.88;;;20.50;50.70;;;;;;5017608;28;20187;-70
2022/04/14 03:41:25;;;;;;;3.47;3.17;;;20.50;50.70;;;;;;5018079;28;20187;-70
2022/04/14 03:43:51;;;;;;;2.72;2.50;;;20.50;50.70;;;;;;5017639;28;20245;-70
2022/04/14 03:46:19;;;;;;;3.75;2.85;;;20.50;50.70;;;;;;5038338;22;20239;-72
2022/04/14 03:48:46;;;;;;;3.22;2.92;;;20.50;50.70;;;;;;5013235;28;20172;-71
2022/04/14 03:51:14;;;;;;;3.80;3.40;;;20.50;50.70;;;;;;5012300;28;20183;-71
2022/04/14 03:53:44;;;;;;;4.18;3.67;;;20.50;50.70;;;;;;5011860;28;20223;-71
2022/04/14 03:56:10;;;;;;;4.32;3.63;;;20.50;50.70;;;;;;5011851;28;20607;-71
2022/04/14 03:58:37;;;;;;;3.75;3.45;;;20.50;50.70;;;;;;5012256;28;20181;-71
2022/04/14 04:01:03;;;;;;;3.78;3.42;;;20.40;50.60;;;;;;5012243;28;20216;-71
2022/04/14 04:03:29;;;;;;;4.07;3.75;;;20.40;50.60;;;;;;5011794;28;20203;-71
2022/04/14 04:05:55;;;;;;;4.47;4.07;;;20.40;50.60;;;;;;5011542;28;20207;-69
2022/04/14 04:08:21;;;;;;;4.00;3.60;;;20.40;50.60;;;;;;5011946;28;20188;-71
2022/04/14 04:10:46;;;;;;;3.58;3.28;;;20.50;50.60;;;;;;5012026;28;20218;-70
2022/04/14 04:13:12;;;;;;;3.40;3.10;;;20.40;50.60;;;;;;5012897;28;20279;-71
2022/04/14 04:15:38;;;;;;;3.30;3.00;;;20.40;50.60;;;;;;5011766;28;20187;-71
2022/04/14 04:18:05;;;;;;;3.08;2.78;;;20.40;50.60;;;;;;4995150;28;20267;-70
2022/04/14 04:20:34;;;;;;;3.58;3.03;;;20.40;50.60;;;;;;4995058;28;20183;-71
2022/04/14 04:23:06;;;;;;;3.58;3.28;;;20.40;50.60;;;;;;5026991;28;20540;-70
2022/04/14 04:25:32;;;;;;;3.17;2.88;;;20.40;50.60;;;;;;5014752;28;20261;-71
2022/04/14 04:27:58;;;;;;;3.35;3.05;;;20.40;50.60;;;;;;5031026;28;20225;-70
2022/04/14 04:30:25;;;;;;;3.83;3.30;;;20.40;50.60;;;;;;5032350;28;20643;-70
2022/04/14 04:32:50;;;;;;;3.53;3.22;;;20.40;50.60;;;;;;5044111;28;20184;-70
2022/04/14 04:35:17;;;;;;;3.67;3.33;;;20.40;50.60;;;;;;5028162;28;20180;-70
2022/04/14 04:37:42;;;;;;;3.80;3.50;;;20.40;50.60;;;;;;5011232;28;20207;-70
2022/04/14 04:40:09;;;;;;;4.10;3.70;;;20.40;50.60;;;;;;5011777;28;20226;-68
2022/04/14 04:42:34;;;;;;;4.47;3.50;;;20.40;50.60;;;;;;5011310;28;20344;-70
2022/04/14 04:45:00;;;;;;;4.50;3.97;;;20.40;51.20;;;;;;5012615;28;20301;-71
2022/04/14 04:47:26;;;;;;;3.83;3.53;;;20.40;50.60;;;;;;5011134;28;20235;-71
2022/04/14 04:49:52;;;;;;;4.32;3.92;;;20.40;50.50;;;;;;5015753;28;20184;-71
2022/04/14 04:52:17;;;;;;;4.20;3.80;;;20.40;50.60;;;;;;5032189;28;20183;-71
2022/04/14 04:54:43;;;;;;;4.57;3.95;;;20.40;51.20;;;;;;5015327;28;20255;-70
2022/04/14 04:57:09;;;;;;;4.47;4.07;;;20.40;50.50;;;;;;5016332;28;20207;-70
2022/04/14 04:59:36;;;;;;;5.25;4.50;;;20.40;50.50;;;;;;5015445;28;20192;-71
2022/04/14 05:02:02;;;;;;;4.90;4.40;;;20.40;50.50;;;;;;5015251;28;20343;-70
2022/04/14 05:04:27;;;;;;;4.35;3.95;;;20.40;50.50;;;;;;5015248;28;20313;-71
2022/04/14 05:06:53;;;;;;;3.65;3.30;;;20.40;50.50;;;;;;5014884;28;20218;-70
2022/04/14 05:09:20;;;;;;;3.90;3.50;;;20.40;50.50;;;;;;4999057;28;20210;-70
2022/04/14 05:11:46;;;;;;;3.67;3.15;;;20.40;50.50;;;;;;5015043;28;20279;-69
2022/04/14 05:14:11;;;;;;;4.03;3.63;;;20.40;50.50;;;;;;5031480;28;20224;-71
2022/04/14 05:16:37;;;;;;;4.15;3.75;;;20.40;50.50;;;;;;5014690;28;20208;-70
2022/04/14 05:19:05;;;;;;;4.13;3.70;;;20.30;50.40;;;;;;5014872;28;20192;-70
2022/04/14 05:21:31;;;;;;;3.40;3.10;;;20.40;50.60;;;;;;5015910;28;20192;-70
2022/04/14 05:23:57;;;;;;;3.05;2.85;;;20.30;50.50;;;;;;5015051;28;20565;-71
2022/04/14 05:26:22;;;;;;;3.47;3.10;;;20.30;50.50;;;;;;5030907;28;20215;-70
2022/04/14 05:28:48;;;;;;;3.50;3.20;;;20.40;50.60;;;;;;5047854;28;20200;-71
2022/04/14 05:31:14;;;;;;;3.47;3.17;;;20.40;50.60;;;;;;5014852;28;20184;-71
2022/04/14 05:33:40;;;;;;;3.50;3.20;;;20.40;50.60;;;;;;5031144;28;20235;-71
2022/04/14 05:36:06;;;;;;;3.70;3.08;;;20.40;50.60;;;;;;5014315;28;20686;-69
2022/04/14 05:38:32;;;;;;;3.90;3.25;;;20.40;50.60;;;;;;5047858;28;20188;-71
2022/04/14 05:40:58;;;;;;;3.67;3.03;;;20.40;50.60;;;;;;5015894;28;20251;-71
2022/04/14 05:43:28;;;;;;;3.92;3.63;;;20.40;50.60;;;;;;5047377;28;20267;-70
2022/04/14 05:45:59;;;;;;;3.90;3.40;;;20.30;50.40;;;;;;5014180;28;20682;-70
2022/04/14 05:48:24;;;;;;;3.65;3.20;;;20.30;50.50;;;;;;5012483;28;20275;-71
2022/04/14 05:50:50;;;;;;;3.85;3.55;;;20.30;50.40;;;;;;5016327;28;20272;-71
2022/04/14 05:53:18;;;;;;;3.80;3.50;;;20.40;50.50;;;;;;4995797;28;20185;-71
2022/04/14 05:55:45;;;;;;;3.85;3.45;;;20.40;50.50;;;;;;4995673;28;20181;-70
2022/04/14 05:58:12;;;;;;;3.50;3.20;;;20.40;51.10;;;;;;4994607;28;20209;-71
2022/04/14 06:00:39;;;;;;;3.20;2.88;;;20.40;50.40;;;;;;4993365;28;20192;-70
2022/04/14 06:03:04;;;;;;;3.13;2.85;;;20.40;50.40;;;;;;4994391;28;20223;-70
2022/04/14 06:05:32;;;;;;;3.25;2.95;;;20.40;50.40;;;;;;5012959;28;20207;-70
2022/04/14 06:07:59;;;;;;;3.30;3.00;;;20.40;50.40;;;;;;5016668;28;20299;-71
2022/04/14 06:10:26;;;;;;;3.25;2.95;;;20.40;50.40;;;;;;5033615;28;20186;-71
2022/04/14 06:12:56;;;;;;;3.40;3.10;;;20.40;50.40;;;;;;5033639;28;20215;-71
2022/04/14 06:15:23;;;;;;;3.40;3.10;;;20.40;50.40;;;;;;5011170;28;20196;-71
2022/04/14 06:17:50;;;;;;;3.40;3.10;;;20.40;50.40;;;;;;5013783;28;20235;-71
2022/04/14 06:20:16;;;;;;;2.95;2.75;;;20.40;50.40;;;;;;5013983;28;20192;-71
2022/04/14 06:22:43;;;;;;;3.00;2.70;;;20.40;50.40;;;;;;5013911;28;20192;-71
2022/04/14 06:25:17;;;;;;;2.50;2.30;;;20.50;50.50;;;;;;4997258;28;20192;-71
2022/04/14 06:27:45;;;;;;;3.22;2.92;;;20.50;50.50;;;;;;5013822;28;20243;-71
2022/04/14 06:30:13;;;;;;;3.85;3.55;;;20.50;50.50;;;;;;5016959;28;20237;-71
2022/04/14 06:32:40;;;;;;;3.35;3.05;;;20.50;50.40;;;;;;5033315;28;20200;-71
2022/04/14 06:35:09;;;;;;;3.70;3.40;;;20.50;50.40;;;;;;5046260;28;20238;-71
2022/04/14 06:37:35;;;;;;;5.03;3.80;;;20.50;50.40;;;;;;4996654;28;20204;-70
2022/04/14 06:40:02;;;;;;;5.47;3.80;;;20.50;50.40;;;;;;4997256;28;20184;-70
2022/04/14 06:42:29;;;;;;;3.38;3.08;;;20.50;50.40;;;;;;5014002;28;20220;-71
2022/04/14 06:44:59;;;;;;;4.20;3.80;;;20.60;50.40;;;;;;5029509;28;20199;-70
2022/04/14 06:47:26;;;;;;;3.65;3.35;;;20.60;50.40;;;;;;5012941;28;20262;-71
2022/04/14 06:49:52;;;;;;;3.55;3.25;;;20.60;50.40;;;;;;5029488;28;20192;-70
2022/04/14 06:52:18;;;;;;;3.00;2.80;;;20.60;50.40;;;;;;4996754;28;20681;-70
2022/04/14 06:54:44;;;;;;;3.50;3.13;;;20.60;50.40;;;;;;4996566;28;20282;-71
2022/04/14 06:57:10;;;;;;;4.43;3.33;;;20.70;50.50;;;;;;5012684;28;20583;-71
2022/04/14 06:59:35;;;;;;;3.58;3.13;;;20.70;50.50;;;;;;5012865;28;20220;-71
2022/04/14 07:02:01;;;;;;;3.50;3.20;;;20.70;50.50;;;;;;5017245;28;20188;-71
2022/04/14 07:04:27;;;;;;;3.42;3.13;;;20.70;50.50;;;;;;5024340;28;20183;-71
2022/04/14 07:06:54;;;;;;;3.60;3.15;;;20.70;50.50;;;;;;5013611;28;20251;-71
2022/04/14 07:09:21;;;;;;;3.58;3.22;;;20.70;50.50;;;;;;5012685;28;20338;-71
2022/04/14 07:11:47;;;;;;;3.28;2.97;;;20.70;50.50;;;;;;5012243;28;20346;-71
2022/04/14 07:14:14;;;;;;;3.95;3.22;;;20.80;50.60;;;;;;5012957;28;20625;-71
2022/04/14 07:16:41;;;;;;;3.13;2.90;;;20.70;50.50;;;;;;5012278;28;20338;-70
2022/04/14 07:19:07;;;;;;;2.92;2.60;;;20.80;50.60;;;;;;5012500;28;20199;-71
2022/04/14 07:21:33;;;;;;;3.13;2.78;;;20.80;51.30;;;;;;5012777;28;20176;-71
2022/04/14 07:23:58;;;;;;;3.13;2.83;;;20.80;50.70;;;;;;5013673;28;20191;-71
2022/04/14 07:26:24;;;;;;;3.60;2.83;;;20.80;50.80;;;;;;5012144;28;20242;-71
2022/04/14 07:28:50;;;;;;;3.38;3.08;;;20.80;50.80;;;;;;5012403;28;20188;-71
2022/04/14 07:31:16;;;;;;;3.65;2.85;;;20.80;50.80;;;;;;5012506;28;20184;-71
2022/04/14 07:33:42;;;;;;;3.40;2.60;;;20.80;50.90;;;;;;5012205;28;20184;-71
2022/04/14 07:36:08;;;;;;;3.33;2.90;;;20.80;50.80;;;;;;5011414;28;20203;-71
2022/04/14 07:38:34;;;;;;;2.65;2.45;;;20.80;51.00;;;;;;4995863;28;20184;-71
2022/04/14 07:41:05;;;;;;;3.00;2.70;;;20.90;51.10;;;;;;5011919;28;20188;-71
2022/04/14 07:43:32;;;;;;;2.65;2.45;;;20.90;50.90;;;;;;5012615;28;20188;-71
2022/04/14 07:45:58;;;;;;;2.78;2.58;;;20.90;51.00;;;;;;5012738;28;20208;-71
2022/04/14 07:48:24;;;;;;;2.88;2.67;;;20.90;51.00;;;;;;5011976;28;20192;-71
2022/04/14 07:50:50;;;;;;;3.53;3.10;;;20.90;51.10;;;;;;5011242;28;20188;-70
2022/04/14 07:53:16;;;;;;;4.35;2.90;;;20.90;51.00;;;;;;5013229;28;20169;-71
2022/04/14 07:55:42;;;;;;;2.90;2.70;;;20.90;51.70;;;;;;4995155;28;20211;-70
2022/04/14 07:58:09;;;;;;;2.90;2.63;;;21.00;51.10;;;;;;5011956;28;20223;-71
2022/04/14 08:00:36;;;;;;;5.18;3.28;;;21.00;51.20;;;;;;5011790;28;20219;-70
2022/04/14 08:03:04;;;;;;;3.10;2.90;;;21.00;51.20;;;;;;5011362;28;20177;-70
2022/04/14 08:05:37;;;;;;;3.25;2.95;;;21.00;51.30;;;;;;5011810;28;20192;-71
2022/04/14 08:08:11;;;;;;;3.10;2.80;;;21.00;51.30;;;;;;5011643;28;20298;-68
2022/04/14 08:10:38;;;;;;;3.38;2.50;;;21.00;51.40;;;;;;4995270;28;20173;-69
2022/04/14 08:13:04;;;;;;;2.67;2.47;;;21.00;51.50;;;;;;5011668;28;20714;-67
2022/04/14 08:15:31;;;;;;;4.75;2.88;;;21.00;51.40;;;;;;5011413;28;20275;-69
2022/04/14 08:17:59;;;;;;;2.90;2.70;;;21.10;51.60;;;;;;5011411;28;20204;-70
2022/04/14 08:20:26;;;;;;;3.63;2.88;;;21.10;51.50;;;;;;4995192;28;20184;-71
2022/04/14 08:22:54;;;;;;;4.00;3.28;;;21.00;51.50;;;;;;5012148;28;20187;-69
2022/04/14 08:25:33;;;;;;;4.10;2.78;;;21.10;51.70;;;;;;5025574;28;20218;-70
2022/04/14 08:28:04;;;;;;;3.00;2.70;;;21.00;51.40;;;;;;5012661;28;20227;-71
2022/04/14 08:30:33;;;;;;;4.82;2.95;;;21.10;51.60;;;;;;5011481;28;20192;-69
2022/04/14 08:33:03;;;;;;;3.92;2.78;;;21.10;51.50;;;;;;4995126;28;20267;-70
2022/04/14 08:35:32;;;;;;;6.85;3.20;;;21.10;51.60;;;;;;5011412;28;20192;-69
2022/04/14 08:38:01;;;;;;;3.90;2.95;;;21.10;51.60;;;;;;5011345;28;20200;-70
2022/04/14 08:40:34;;;;;;;3.40;3.00;;;21.10;51.70;;;;;;5027783;28;20342;-70
2022/04/14 08:43:09;;;;;;;3.90;3.05;;;21.10;51.70;;;;;;5011444;28;20183;-70
2022/04/14 08:45:43;;;;;;;3.22;2.90;;;21.10;51.80;;;;;;5009564;28;20180;-68
2022/04/14 08:48:12;;;;;;;3.10;2.80;;;21.10;51.90;;;;;;4995939;28;20653;-70
2022/04/14 08:50:38;;;;;;;5.15;3.03;;;21.10;52.20;;;;;;5004310;28;20189;-71
2022/04/14 08:53:05;;;;;;;3.92;2.45;;;21.10;51.80;;;;;;5027713;28;20180;-71
2022/04/14 08:55:31;;;;;;;4.53;2.70;;;21.10;52.10;;;;;;5010865;28;20219;-70
2022/04/14 08:57:57;;;;;;;2.95;2.30;;;21.10;52.10;;;;;;5002736;28;20212;-71
2022/04/14 09:00:23;;;;;;;3.10;2.80;;;21.10;52.00;;;;;;5012417;28;20183;-71
2022/04/14 09:02:51;;;;;;;3.42;2.95;;;21.10;52.80;;;;;;5012332;28;20202;-71
2022/04/14 09:05:17;;;;;;;2.90;2.50;;;21.10;52.20;;;;;;5010901;28;20187;-71
2022/04/14 09:07:52;;;;;;;2.65;2.47;;;21.10;52.80;;;;;;5009910;28;20218;-71
2022/04/14 09:10:19;;;;;;;3.95;2.70;;;21.10;52.20;;;;;;4991472;28;20184;-72
2022/04/14 09:12:49;;;;;;;4.40;2.75;;;21.10;52.20;;;;;;5016199;28;20555;-71
2022/04/14 09:15:16;;;;;;;4.53;2.60;;;21.10;52.20;;;;;;5004866;28;20242;-71
2022/04/14 09:17:43;;;;;;;3.05;2.47;;;21.10;52.20;;;;;;5010919;28;20214;-71
2022/04/14 09:20:34;;;;;;;4.32;2.95;;;21.10;52.20;;;;;;5023961;28;20193;-71
2022/04/14 09:23:21;;;;;;;3.10;2.80;;;21.20;52.20;;;;;;5007686;28;20227;-72
2022/04/14 09:26:12;;;;;;;4.70;2.60;;;21.10;52.20;;;;;;5001313;28;20211;-71
2022/04/14 09:28:40;;;;;;;2.65;2.45;;;21.10;52.50;;;;;;5010752;28;20196;-71
2022/04/14 09:31:11;;;;;;;3.45;2.88;;;21.10;52.70;;;;;;4994845;28;20214;-72
2022/04/14 09:33:46;;;;;;;4.95;2.92;;;21.10;52.90;;;;;;4992016;28;20624;-71
2022/04/14 09:36:20;;;;;;;3.30;2.72;;;21.10;52.70;;;;;;5007264;28;20226;-71
2022/04/14 09:39:02;;;;;;;3.92;3.08;;;21.10;53.00;;;;;;5034294;28;20229;-72
2022/04/14 09:41:37;;;;;;;5.88;3.17;;;21.10;53.00;;;;;;5051203;28;20263;-71
2022/04/14 09:44:08;;;;;;;3.45;2.90;;;21.10;53.10;;;;;;5034382;28;20537;-71
2022/04/14 09:49:08;;;;;;;4.78;3.33;;;21.10;53.00;;;;;;4976717;28;20247;-70
2022/04/14 09:51:47;;;;;;;3.65;2.60;;;21.10;53.00;;;;;;4997084;28;20252;-70
2022/04/14 09:54:18;;;;;;;5.78;2.88;;;21.10;53.10;;;;;;4980604;28;20181;-71
2022/04/14 09:56:51;;;;;;;4.22;3.03;;;21.10;53.00;;;;;;4986528;28;20189;-70
2022/04/14 09:59:22;;;;;;;3.97;2.80;;;21.10;52.80;;;;;;4985970;28;20292;-68
2022/04/14 10:01:49;;;;;;;4.95;3.13;;;21.10;53.10;;;;;;4963692;28;20193;-70
2022/04/14 10:04:32;;;;;;;4.85;2.95;;;21.10;53.00;;;;;;4978678;28;20678;-70
2022/04/14 10:07:19;;;;;;;3.83;3.08;;;21.10;53.10;;;;;;4993367;28;20308;-71
2022/04/14 10:09:48;;;;;;;4.35;2.97;;;21.10;53.30;;;;;;4978821;28;20216;-70
2022/04/14 10:12:23;;;;;;;5.00;2.95;;;21.10;53.00;;;;;;4961785;28;20231;-70
2022/04/14 10:15:02;;;;;;;4.00;2.72;;;21.10;53.20;;;;;;4993888;28;20192;-70
2022/04/14 10:17:32;;;;;;;4.60;3.47;;;21.10;53.10;;;;;;4999637;28;20692;-70
2022/04/14 10:19:58;;;;;;;4.93;3.25;;;21.10;53.00;;;;;;4978932;28;20192;-70
2022/04/14 10:22:25;;;;;;;3.70;2.97;;;21.10;53.20;;;;;;4979250;28;20177;-70
2022/04/14 10:24:55;;;;;;;5.43;3.10;;;21.10;53.30;;;;;;4979539;28;20189;-70
2022/04/14 10:27:22;;;;;;;5.32;3.35;;;21.10;53.20;;;;;;4984212;28;20688;-71
2022/04/14 10:29:49;;;;;;;5.60;3.17;;;21.10;53.30;;;;;;4985284;28;20260;-70
2022/04/14 10:32:17;;;;;;;3.90;2.88;;;21.10;53.30;;;;;;4978571;28;20189;-71
2022/04/14 10:34:44;;;;;;;5.07;3.40;;;21.10;53.40;;;;;;4977874;28;20196;-71
2022/04/14 10:37:41;;;;;;;4.65;3.10;;;21.10;53.40;;;;;;4994697;28;20308;-70
2022/04/14 10:40:10;;;;;;;4.97;3.25;;;21.10;53.30;;;;;;4995880;28;20251;-71
2022/04/14 10:42:38;;;;;;;4.38;2.70;;;21.20;53.40;;;;;;4984766;28;20208;-71
2022/04/14 10:45:19;;;;;;;3.40;3.10;;;21.10;53.40;;;;;;4970580;28;20196;-70
2022/04/14 10:47:50;;;;;;;4.20;3.28;;;21.10;53.40;;;;;;4989380;28;20220;-71
2022/04/14 10:50:28;;;;;;;3.42;3.10;;;21.10;53.30;;;;;;4980411;28;20193;-70
2022/04/14 10:53:29;;;;;;;4.20;3.20;;;21.20;53.80;;;;;;4977063;28;20227;-71
2022/04/14 10:55:55;;;;;;;4.28;3.33;;;21.10;53.40;;;;;;4984427;28;20200;-70
2022/04/14 10:58:26;;;;;;;6.43;3.55;;;21.20;53.60;;;;;;4977801;28;20209;-70
2022/04/14 11:00:54;;;;;;;5.18;3.17;;;21.10;53.70;;;;;;4978745;28;20189;-71
2022/04/14 11:03:40;;;;;;;6.40;3.53;;;21.10;53.70;;;;;;4979050;28;20185;-71
2022/04/14 11:06:06;;;;;;;5.70;3.13;;;21.20;53.70;;;;;;4995654;28;20232;-71
2022/04/14 11:08:32;;;;;;;3.17;2.88;;;21.20;53.80;;;;;;4994628;28;20259;-71
2022/04/14 11:11:11;;;;;;;5.30;3.13;;;21.20;53.80;;;;;;4995967;28;20192;-70
2022/04/14 11:13:58;;;;;;;6.15;3.20;;;21.20;53.70;;;;;;4995220;28;20220;-70
2022/04/14 11:16:47;;;;;;;4.53;3.10;;;21.20;53.70;;;;;;4995489;28;20255;-71
2022/04/14 11:19:19;;;;;;;5.20;3.42;;;21.20;53.70;;;;;;4991112;28;20205;-70
2022/04/14 11:22:08;;;;;;;4.75;3.33;;;21.20;54.00;;;;;;4972989;28;20699;-70
2022/04/14 11:24:39;;;;;;;5.60;3.53;;;21.20;53.90;;;;;;4977720;28;20263;-70
2022/04/14 11:27:18;;;;;;;4.80;3.60;;;21.20;53.90;;;;;;5000120;28;20692;-70
2022/04/14 11:29:51;;;;;;;4.50;3.30;;;21.20;53.90;;;;;;4976648;28;20193;-70
2022/04/14 11:32:39;;;;;;;4.63;3.63;;;21.20;53.80;;;;;;4976933;28;20247;-70
2022/04/14 11:35:18;;;;;;;4.70;3.30;;;21.20;53.70;;;;;;4976343;28;20189;-71
2022/04/14 11:37:46;;;;;;;3.60;3.30;;;21.20;53.70;;;;;;5003207;28;20204;-71
2022/04/14 11:40:22;;;;;;;3.72;2.67;;;21.20;54.00;;;;;;4977068;28;20197;-71
2022/04/14 11:43:00;;;;;;;4.18;3.00;;;21.20;53.70;;;;;;4993634;28;20205;-71
2022/04/14 11:45:28;;;;;;;3.25;2.92;;;21.20;53.80;;;;;;4991555;28;20204;-71
2022/04/14 11:48:03;;;;;;;5.28;2.80;;;21.20;53.80;;;;;;4984550;28;20212;-71
2022/04/14 11:50:33;;;;;;;3.45;2.90;;;21.20;53.60;;;;;;4977154;28;20172;-71
2022/04/14 11:53:03;;;;;;;4.25;2.88;;;21.20;53.70;;;;;;4995291;28;20183;-71
2022/04/14 11:55:39;;;;;;;3.40;3.10;;;21.20;53.60;;;;;;4981223;28;20207;-71
2022/04/14 11:58:12;;;;;;;6.72;3.50;;;21.20;53.60;;;;;;4952138;28;20208;-71
2022/04/14 12:00:50;;;;;;;5.25;3.47;;;21.20;53.70;;;;;;4976524;28;20193;-70
2022/04/14 12:03:29;;;;;;;4.47;3.25;;;21.20;53.50;;;;;;4961039;28;20260;-70
2022/04/14 12:05:55;;;;;;;3.25;2.95;;;21.20;53.50;;;;;;4984294;28;20213;-70
2022/04/14 12:08:21;;;;;;;3.45;2.78;;;21.20;53.50;;;;;;4977209;28;20205;-71
2022/04/14 12:10:46;;;;;;;3.97;2.83;;;21.20;53.50;;;;;;4978245;28;20224;-70
2022/04/14 12:13:12;;;;;;;4.30;2.65;;;21.20;53.40;;;;;;4994598;28;20683;-70
2022/04/14 12:15:38;;;;;;;4.65;3.08;;;21.20;53.40;;;;;;4994218;28;20185;-70
2022/04/14 12:18:09;;;;;;;2.85;2.65;;;21.20;53.50;;;;;;5000392;28;20201;-71
2022/04/14 12:20:39;;;;;;;3.40;2.80;;;21.20;53.50;;;;;;4994660;28;20242;-71
2022/04/14 12:23:08;;;;;;;4.95;3.15;;;21.20;53.60;;;;;;4970464;28;20185;-70
2022/04/14 12:25:35;;;;;;;5.70;3.00;;;21.30;53.50;;;;;;4977276;28;20208;-71
2022/04/14 12:28:01;;;;;;;3.95;2.80;;;21.20;53.60;;;;;;4976636;28;20196;-70
2022/04/14 12:30:29;;;;;;;3.20;2.90;;;21.20;53.60;;;;;;4960995;28;20215;-71
2022/04/14 12:33:05;;;;;;;3.72;3.20;;;21.20;53.70;;;;;;4960018;28;20181;-71
2022/04/14 12:35:51;;;;;;;3.45;2.83;;;21.20;53.80;;;;;;4979641;28;20239;-72
2022/04/14 12:38:24;;;;;;;3.38;2.60;;;21.20;53.60;;;;;;4970631;28;20216;-71
2022/04/14 12:41:02;;;;;;;5.15;2.85;;;21.20;53.50;;;;;;4976287;28;20664;-71
2022/04/14 12:43:39;;;;;;;6.07;2.80;;;21.20;53.70;;;;;;4976152;28;20335;-71
2022/04/14 12:46:36;;;;;;;3.92;2.95;;;21.20;53.60;;;;;;5007433;28;20217;-71
2022/04/14 12:49:13;;;;;;;3.20;2.90;;;21.20;53.70;;;;;;4975720;28;20204;-71
2022/04/14 12:51:50;;;;;;;3.58;2.55;;;21.20;53.80;;;;;;4993707;28;20193;-70
2022/04/14 12:54:17;;;;;;;19.95;4.47;;;21.20;53.80;;;;;;4977257;28;20185;-71
2022/04/14 12:57:22;;;;;;;9.43;3.25;;;21.30;54.30;;;;;;4970115;28;20184;-71
2022/04/14 13:00:18;;;;;;;10.32;3.20;;;21.40;55.40;;;;;;4975424;28;20208;-70